Flight Track Log - Related Links

Times and Time Zones

All times are in EDT time to prevent confusion due to time zone crossing. See the SKW6335 flight status page for this flight to view local times or setup timezone preferences in your user account.

Time Position Orientation Groundspeed Altitude Reporting Facility
EDT Latitude Longitude Course Direction KTS MPH feet Rate Location/Type
Thu 05:56:11 PM 33.9333 -118.4333 140° Southeast 150 173 1,800  Level Southern California TRACON
Thu 05:57:11 PM 33.9000 -118.4667 220° Southwest 182 209 3,300 1,576 Climbing Southern California TRACON
Thu 05:58:09 PM 33.8472 -118.4811 193° South 194 223 4,900 1,500 Climbing Los Angeles Center
Thu 05:59:00 PM 33.6897 -118.1495 139° Southeast  Level Estimated
Thu 05:59:11 PM 33.7992 -118.4675 167° South 201 231 6,300  Level Los Angeles Center
Thu 06:00:00 PM 33.6266 -118.0847 139° Southeast  Level FlightAware Approximate
Thu 06:00:14 PM 33.7383 -118.4364 157° South 202 232 8,200  Level Los Angeles Center
Thu 06:01:00 PM 33.5635 -118.0201 140° Southeast  Level FlightAware Approximate
Thu 06:01:16 PM 33.6922 -118.3900 140° Southeast 221 254 9,000  Level Los Angeles Center
Thu 06:02:18 PM 33.6511 -118.3203 125° Southeast 258 297 9,000  Level Los Angeles Center
Thu 06:03:20 PM 33.6092 -118.2475 125° Southeast 267 307 9,000  Level Los Angeles Center
Thu 06:04:22 PM 33.5619 -118.1636 124° Southeast 261 300 9,000  Level Los Angeles Center
Thu 06:05:25 PM 33.5225 -118.0942 124° Southeast 255 293 9,000  Level Los Angeles Center
Thu 06:06:27 PM 33.4836 -118.0264 125° Southeast 250 288 9,000  Level Los Angeles Center
Thu 06:07:29 PM 33.4450 -117.9581 124° Southeast 249 287 9,000  Level Los Angeles Center
Thu 06:08:31 PM 33.4056 -117.8892 124° Southeast 249 287 9,000  Level Los Angeles Center
Thu 06:09:07 PM 33.3833 -117.8333 115° Southeast 251 289 9,000  Level Southern California TRACON
Thu 06:09:33 PM 33.3583 -117.8075 139° Southeast 251 289 9,000  Level Los Angeles Center
Thu 06:10:47 PM 33.3200 -117.7400 124° Southeast 247 284 9,000  Level Los Angeles Center
Thu 06:11:50 PM 33.2728 -117.6578 124° Southeast 249 287 9,000  Level Los Angeles Center
Thu 06:12:52 PM 33.2261 -117.5989 133° Southeast 248 285 9,000  Level Los Angeles Center
Thu 06:13:14 PM 33.2000 -117.5667 134° Southeast 251 289 9,000  Level Southern California TRACON
Thu 06:14:14 PM 33.1333 -117.5333 157° South 253 291 9,000  Level Southern California TRACON
Thu 06:14:56 PM 33.1125 -117.5008 127° Southeast 251 289 9,000  Level Los Angeles Center
Thu 06:15:58 PM 33.0428 -117.4444 146° Southeast 252 290 9,000 -242 Level Los Angeles Center
Thu 06:17:00 PM 32.9847 -117.3953 145° Southeast 254 292 8,500 -581 Descending Los Angeles Center
Thu 06:18:02 PM 32.9256 -117.3386 141° Southeast 269 310 7,800 -672 Descending Los Angeles Center
Thu 06:19:14 PM 32.8667 -117.2500 128° Southeast 263 303 7,000 -636 Descending Southern California TRACON
Thu 06:20:14 PM 32.8167 -117.2000 140° Southeast 236 272 6,400 -496 Descending Southern California TRACON
Thu 06:21:15 PM 32.7833 -117.1333 121° Southeast 217 250 6,000 -256 Descending Southern California TRACON
Thu 06:22:11 PM 32.7778 -117.0814 97° East 213 245 5,900 -51 Descending Los Angeles Center
Thu 06:23:13 PM 32.7594 -117.0017 105° East 209 241 5,900 -194 Level Los Angeles Center
Thu 06:24:15 PM 32.7500 -116.9333 99° East 220 253 5,500 -492 Descending Southern California TRACON
Thu 06:25:15 PM 32.6833 -116.9167 168° South 224 258 4,900 -942 Descending Southern California TRACON
Thu 06:26:16 PM 32.6833 -116.9833 270° West 212 244 3,600 -942 Descending Southern California TRACON
Thu 06:27:16 PM 32.7000 -117.0500 287° West 197 227 3,000 -600 Descending Southern California TRACON

Login

Don't have an account? Register now (free) for customized features, flight alerts, and more!